createdAt,value
2019-05-28T00:02:08.846Z,6.80
2019-05-28T00:04:39.672Z,8.50
2019-05-28T00:07:10.546Z,7.03
2019-05-28T00:09:41.365Z,6.85
2019-05-28T00:12:12.308Z,7.20
2019-05-28T00:14:43.142Z,7.58
2019-05-28T00:17:14.005Z,8.03
2019-05-28T00:19:44.916Z,9.00
2019-05-28T00:22:15.891Z,7.67
2019-05-28T00:24:46.684Z,7.47
2019-05-28T00:27:17.544Z,6.90
2019-05-28T00:29:48.356Z,8.03
2019-05-28T00:32:19.386Z,7.65
2019-05-28T00:34:49.828Z,9.43
2019-05-28T00:37:20.686Z,7.72
2019-05-28T00:39:51.646Z,9.33
2019-05-28T00:42:22.565Z,7.60
2019-05-28T00:44:53.376Z,7.67
2019-05-28T00:47:24.366Z,7.30
2019-05-28T00:49:55.305Z,7.67
2019-05-28T00:52:26.130Z,8.63
2019-05-28T00:54:57.042Z,8.77
2019-05-28T00:57:27.876Z,7.83
2019-05-28T00:59:59.350Z,6.83
2019-05-28T01:02:29.848Z,8.03
2019-05-28T01:05:00.707Z,7.08
2019-05-28T01:07:31.216Z,6.58
2019-05-28T01:10:02.189Z,8.15
2019-05-28T01:12:33.106Z,7.17
2019-05-28T01:15:05.084Z,6.55
2019-05-28T01:17:36.027Z,6.67
2019-05-28T01:20:10.356Z,8.07
2019-05-28T01:22:41.155Z,5.77
2019-05-28T01:25:11.786Z,7.60
2019-05-28T01:27:42.648Z,7.00
2019-05-28T01:30:15.096Z,6.83
2019-05-28T01:32:45.972Z,8.90
2019-05-28T01:35:16.773Z,6.50
2019-05-28T01:37:47.613Z,9.90
2019-05-28T01:40:18.447Z,8.17
2019-05-28T01:42:49.551Z,6.10
2019-05-28T01:45:21.365Z,5.87
2019-05-28T01:47:51.914Z,6.53
2019-05-28T01:50:22.839Z,6.10
2019-05-28T01:52:56.090Z,5.83
2019-05-28T01:55:26.310Z,6.87
2019-05-28T01:57:56.783Z,7.57
2019-05-28T02:00:27.409Z,7.73
2019-05-28T02:02:58.298Z,7.43
2019-05-28T02:05:29.169Z,6.43
2019-05-28T02:08:00.025Z,6.97
2019-05-28T02:10:30.939Z,5.30
2019-05-28T02:13:01.784Z,8.13
2019-05-28T02:15:32.780Z,5.90
2019-05-28T02:18:03.580Z,6.17
2019-05-28T02:20:34.502Z,5.97
2019-05-28T02:23:05.329Z,7.53
2019-05-28T02:25:36.227Z,7.47
2019-05-28T02:28:07.007Z,6.93
2019-05-28T02:30:38.128Z,6.90
2019-05-28T02:33:08.890Z,7.50
2019-05-28T02:35:40.287Z,7.50
2019-05-28T02:38:11.059Z,6.60
2019-05-28T02:40:42.081Z,7.47
2019-05-28T02:43:14.624Z,8.67
2019-05-28T02:45:45.474Z,8.33
2019-05-28T02:48:16.373Z,10.30
2019-05-28T02:51:01.467Z,6.47
2019-05-28T02:53:32.877Z,6.90
2019-05-28T02:56:03.962Z,7.00
2019-05-28T02:58:36.925Z,7.67
2019-05-28T03:01:08.960Z,6.27
2019-05-28T03:03:41.135Z,7.27
2019-05-28T03:06:13.982Z,9.10
2019-05-28T03:08:47.578Z,7.20
2019-05-28T03:11:18.363Z,8.80
2019-05-28T03:13:49.098Z,7.43
2019-05-28T03:16:22.582Z,8.83
2019-05-28T03:18:54.212Z,10.13
2019-05-28T03:21:27.253Z,9.63
2019-05-28T03:24:00.657Z,8.87
2019-05-28T03:26:31.497Z,7.73
2019-05-28T03:29:02.584Z,9.03
2019-05-28T03:31:33.623Z,8.70
2019-05-28T03:34:04.754Z,11.53
2019-05-28T03:36:37.456Z,8.97
2019-05-28T03:39:08.915Z,12.33
2019-05-28T03:41:39.934Z,8.73
2019-05-28T03:44:10.731Z,9.67
2019-05-28T03:46:41.573Z,10.67
2019-05-28T03:49:12.513Z,8.37
2019-05-28T03:51:43.098Z,8.40
2019-05-28T03:54:13.656Z,9.30
2019-05-28T03:56:44.493Z,8.07
2019-05-28T03:59:15.588Z,11.07
2019-05-28T04:01:46.476Z,10.10
2019-05-28T04:04:17.314Z,8.83
2019-05-28T04:06:48.335Z,7.13
2019-05-28T04:09:19.329Z,10.20
2019-05-28T04:11:50.031Z,8.53
2019-05-28T04:14:23.303Z,9.53
2019-05-28T04:16:54.231Z,8.20
2019-05-28T04:19:24.697Z,9.17
2019-05-28T04:21:55.533Z,11.47
2019-05-28T04:24:26.536Z,8.57
2019-05-28T04:26:57.621Z,9.37
2019-05-28T04:29:28.434Z,8.83
2019-05-28T04:31:59.291Z,9.30
2019-05-28T04:34:30.271Z,11.40
2019-05-28T04:37:01.177Z,9.33
2019-05-28T04:39:35.252Z,11.90
2019-05-28T04:42:05.087Z,6.87
2019-05-28T04:44:36.093Z,6.60
2019-05-28T04:47:08.717Z,8.17
2019-05-28T04:49:39.205Z,8.50
2019-05-28T04:52:10.087Z,7.90
2019-05-28T04:54:42.028Z,7.43
2019-05-28T04:57:12.969Z,10.10
2019-05-28T04:59:43.790Z,9.00
2019-05-28T05:02:14.334Z,11.33
2019-05-28T05:04:45.172Z,8.60
2019-05-28T05:07:16.118Z,9.03
2019-05-28T05:09:46.932Z,9.17
2019-05-28T05:12:17.776Z,9.53
2019-05-28T05:14:49.640Z,11.83
2019-05-28T05:17:20.688Z,9.67
2019-05-28T05:19:51.722Z,10.23
2019-05-28T05:22:22.670Z,14.67
2019-05-28T05:24:53.446Z,8.90
2019-05-28T05:27:24.384Z,9.40
2019-05-28T05:29:55.301Z,9.33
2019-05-28T05:32:27.845Z,8.83
2019-05-28T05:34:58.935Z,9.60
2019-05-28T05:37:30.193Z,10.30
2019-05-28T05:40:01.076Z,8.50
2019-05-28T05:42:32.174Z,10.03
2019-05-28T05:45:03.053Z,8.67
2019-05-28T05:47:34.227Z,9.23
2019-05-28T05:50:06.876Z,9.53
2019-05-28T05:52:37.910Z,8.90
2019-05-28T05:55:09.840Z,8.03
2019-05-28T05:57:40.548Z,9.73
2019-05-28T06:00:11.964Z,8.78
2019-05-28T06:02:43.028Z,10.07
2019-05-28T06:05:13.727Z,10.73
2019-05-28T06:07:44.497Z,8.53
2019-05-28T06:10:16.139Z,10.75
2019-05-28T06:12:46.634Z,8.93
2019-05-28T06:15:17.847Z,10.20
2019-05-28T06:17:48.882Z,9.20
2019-05-28T06:20:19.888Z,8.93
2019-05-28T06:22:50.915Z,11.90
2019-05-28T06:25:21.882Z,11.77
2019-05-28T06:27:52.816Z,11.43
2019-05-28T06:30:23.754Z,8.98
2019-05-28T06:32:55.076Z,9.33
2019-05-28T06:35:26.090Z,9.43
2019-05-28T06:37:56.996Z,8.60
2019-05-28T06:40:28.000Z,7.00
2019-05-28T06:42:58.900Z,8.28
2019-05-28T06:45:30.250Z,9.43
2019-05-28T06:48:01.135Z,8.65
2019-05-28T06:50:32.010Z,6.53
2019-05-28T06:53:03.088Z,9.25
2019-05-28T06:55:34.778Z,6.17
2019-05-28T06:58:05.782Z,10.80
2019-05-28T07:00:36.775Z,6.90
2019-05-28T07:03:07.678Z,11.00
2019-05-28T07:05:38.466Z,6.83
2019-05-28T07:08:09.289Z,9.13
2019-05-28T07:10:56.565Z,6.07
2019-05-28T07:13:12.804Z,8.35
2019-05-28T07:15:44.563Z,6.95
2019-05-28T07:18:15.642Z,6.33
2019-05-28T07:20:46.597Z,10.18
2019-05-28T07:23:17.094Z,7.20
2019-05-28T07:25:47.910Z,8.70
2019-05-28T07:28:18.743Z,10.20
2019-05-28T07:30:49.578Z,10.93
2019-05-28T07:33:20.472Z,6.95
2019-05-28T07:35:51.352Z,6.25
2019-05-28T07:38:22.292Z,9.60
2019-05-28T07:40:54.868Z,6.67
2019-05-28T07:43:25.800Z,9.53
2019-05-28T07:45:56.714Z,9.33
2019-05-28T07:48:27.391Z,8.33
2019-05-28T07:50:58.246Z,7.92
2019-05-28T07:53:39.616Z,7.45
2019-05-28T07:56:01.891Z,6.83
2019-05-28T07:58:32.807Z,7.30
2019-05-28T08:01:03.726Z,6.15
2019-05-28T08:03:34.343Z,5.45
2019-05-28T08:06:04.920Z,6.78
2019-05-28T08:08:35.702Z,7.10
2019-05-28T08:11:06.557Z,5.97
2019-05-28T08:13:40.633Z,5.37
2019-05-28T08:16:18.385Z,5.22
2019-05-28T08:18:42.447Z,5.80
2019-05-28T08:21:13.278Z,6.50
2019-05-28T08:23:43.848Z,4.90
2019-05-28T08:26:14.735Z,6.28
2019-05-28T08:28:45.786Z,4.87
2019-05-28T08:31:20.909Z,7.60
2019-05-28T08:33:48.811Z,6.08
2019-05-28T08:36:19.836Z,8.95
2019-05-28T08:38:50.909Z,8.75
2019-05-28T08:41:21.805Z,8.50
2019-05-28T08:43:52.442Z,8.95
2019-05-28T08:46:23.293Z,5.60
2019-05-28T08:48:54.263Z,7.87
2019-05-28T08:51:25.143Z,7.08
2019-05-28T08:53:56.010Z,10.43
2019-05-28T08:56:26.818Z,7.10
2019-05-28T08:58:57.966Z,9.65
2019-05-28T09:01:29.357Z,5.70
2019-05-28T09:04:00.274Z,6.30
2019-05-28T09:06:31.116Z,6.70
2019-05-28T09:09:02.026Z,5.80
2019-05-28T09:11:32.761Z,5.50
2019-05-28T09:14:03.618Z,7.05
2019-05-28T09:16:34.173Z,8.95
2019-05-28T09:19:05.508Z,8.53
2019-05-28T09:21:36.592Z,5.75
2019-05-28T09:24:07.128Z,5.83
2019-05-28T09:26:37.907Z,7.55
2019-05-28T09:29:11.487Z,6.85
2019-05-28T09:31:42.447Z,7.17
2019-05-28T09:34:13.082Z,6.62
2019-05-28T09:36:43.578Z,4.80
2019-05-28T09:39:14.646Z,5.87
2019-05-28T09:41:45.508Z,7.12
2019-05-28T09:44:16.555Z,6.60
2019-05-28T09:46:47.019Z,7.65
2019-05-28T09:49:17.504Z,7.58
2019-05-28T09:51:48.855Z,7.33
2019-05-28T09:54:19.901Z,6.72
2019-05-28T09:56:50.822Z,5.62
2019-05-28T09:59:21.874Z,5.30
2019-05-28T10:01:53.042Z,5.78
2019-05-28T10:04:43.023Z,9.30
2019-05-28T10:06:56.941Z,6.37
2019-05-28T10:09:27.779Z,6.90
2019-05-28T10:11:58.597Z,5.20
2019-05-28T10:14:29.473Z,7.33
2019-05-28T10:16:59.993Z,6.20
2019-05-28T10:19:30.896Z,8.30
2019-05-28T10:22:01.350Z,6.35
2019-05-28T10:24:31.923Z,10.25
2019-05-28T10:27:02.632Z,4.95
2019-05-28T10:29:33.835Z,7.87
2019-05-28T10:32:05.060Z,6.85
2019-05-28T10:34:35.966Z,5.28
2019-05-28T10:37:06.455Z,7.92
2019-05-28T10:39:37.312Z,5.58
2019-05-28T10:42:08.238Z,5.67
2019-05-28T10:44:39.048Z,6.40
2019-05-28T10:47:09.501Z,6.75
2019-05-28T10:49:40.383Z,5.50
2019-05-28T10:52:11.940Z,3.90
2019-05-28T10:54:42.807Z,7.17
2019-05-28T10:57:13.263Z,9.20
2019-05-28T10:59:44.167Z,7.55
2019-05-28T11:02:15.007Z,5.95
2019-05-28T11:04:46.288Z,3.58
2019-05-28T11:07:16.798Z,5.83
2019-05-28T11:09:47.335Z,6.60
2019-05-28T11:12:18.468Z,6.30
2019-05-28T11:14:49.601Z,4.83
2019-05-28T11:17:20.708Z,6.22
2019-05-28T11:19:51.342Z,4.70
2019-05-28T11:22:22.363Z,4.58
2019-05-28T11:24:53.611Z,6.35
2019-05-28T11:27:24.931Z,6.83
2019-05-28T11:29:55.549Z,7.03
2019-05-28T11:32:26.426Z,6.83
2019-05-28T11:34:57.435Z,7.22
2019-05-28T11:37:27.996Z,6.55
2019-05-28T11:39:59.227Z,6.37
2019-05-28T11:42:30.253Z,7.22
2019-05-28T11:45:01.361Z,5.97
2019-05-28T11:47:32.483Z,6.95
2019-05-28T11:50:04.437Z,6.45
2019-05-28T11:52:35.281Z,5.83
2019-05-28T11:55:15.114Z,6.78
2019-05-28T11:57:47.152Z,6.28
2019-05-28T12:00:19.223Z,6.67
2019-05-28T12:02:50.386Z,8.25
2019-05-28T12:05:22.873Z,8.63
2019-05-28T12:07:53.909Z,7.17
2019-05-28T12:10:25.157Z,4.65
2019-05-28T12:12:56.081Z,7.83
2019-05-28T12:15:26.977Z,7.67
2019-05-28T12:17:57.558Z,9.80
2019-05-28T12:20:29.296Z,8.55
2019-05-28T12:23:10.274Z,4.33
2019-05-28T12:25:32.373Z,8.85
2019-05-28T12:28:03.244Z,4.92
2019-05-28T12:30:35.591Z,5.53
2019-05-28T12:33:06.464Z,5.72
2019-05-28T12:35:42.477Z,6.65
2019-05-28T12:38:10.072Z,6.30
2019-05-28T12:40:47.835Z,4.50
2019-05-28T12:43:13.291Z,4.37
2019-05-28T12:45:44.420Z,6.25
2019-05-28T12:48:15.361Z,6.72
2019-05-28T12:50:46.343Z,7.75
2019-05-28T12:53:17.126Z,5.47
2019-05-28T12:55:47.744Z,7.12
2019-05-28T12:58:18.691Z,6.97
2019-05-28T13:00:49.870Z,5.35
2019-05-28T13:03:20.832Z,2.85
2019-05-28T13:05:51.626Z,7.22
2019-05-28T13:08:22.473Z,4.45
2019-05-28T13:10:53.314Z,5.85
2019-05-28T13:13:24.211Z,4.50
2019-05-28T13:15:55.052Z,3.60
2019-05-28T13:18:25.814Z,7.00
2019-05-28T13:20:56.343Z,2.98
2019-05-28T13:23:27.173Z,7.15
2019-05-28T13:25:58.117Z,4.15
2019-05-28T13:28:28.935Z,4.65
2019-05-28T13:30:59.924Z,4.95
2019-05-28T13:33:30.729Z,4.50
2019-05-28T13:36:01.662Z,3.55
2019-05-28T13:38:32.742Z,3.27
2019-05-28T13:41:03.591Z,4.75
2019-05-28T13:43:34.134Z,4.75
2019-05-28T13:46:05.219Z,4.45
2019-05-28T13:48:36.216Z,4.20
2019-05-28T13:51:07.095Z,5.50
2019-05-28T13:53:37.944Z,3.85
2019-05-28T13:56:08.767Z,4.80
2019-05-28T13:58:39.621Z,2.12
2019-05-28T14:01:10.741Z,4.37
2019-05-28T14:03:41.616Z,2.65
2019-05-28T14:06:12.622Z,4.87
2019-05-28T14:08:47.040Z,5.42
2019-05-28T14:11:16.315Z,5.50
2019-05-28T14:13:47.115Z,5.58
2019-05-28T14:16:18.029Z,3.83
2019-05-28T14:18:48.854Z,3.17
2019-05-28T14:21:19.695Z,4.72
2019-05-28T14:23:53.386Z,3.67
2019-05-28T14:26:24.269Z,4.65
2019-05-28T14:28:56.615Z,3.77
2019-05-28T14:31:28.018Z,3.20
2019-05-28T14:33:58.782Z,5.33
2019-05-28T14:36:29.700Z,5.05
2019-05-28T14:39:03.632Z,6.97
2019-05-28T14:41:33.152Z,4.12
2019-05-28T14:44:04.704Z,3.85
2019-05-28T14:46:35.565Z,5.33
2019-05-28T14:49:07.961Z,2.87
2019-05-28T14:51:39.391Z,5.42
2019-05-28T14:54:10.297Z,2.70
2019-05-28T14:56:41.243Z,4.70
2019-05-28T14:59:12.110Z,6.15
2019-05-28T15:01:42.999Z,4.65
2019-05-28T15:04:15.371Z,3.50
2019-05-28T15:06:46.388Z,6.72
2019-05-28T15:09:21.408Z,4.95
2019-05-28T15:11:56.464Z,5.35
2019-05-28T15:14:22.455Z,4.65
2019-05-28T15:16:54.445Z,4.67
2019-05-28T15:19:25.232Z,5.47
2019-05-28T15:21:56.247Z,3.77
2019-05-28T15:24:27.192Z,3.62
2019-05-28T15:26:58.188Z,4.17
2019-05-28T15:29:29.086Z,3.42
2019-05-28T15:32:00.011Z,5.72
2019-05-28T15:34:30.538Z,4.33
2019-05-28T15:37:01.374Z,5.15
2019-05-28T15:39:39.664Z,5.37
2019-05-28T15:42:05.089Z,3.05
2019-05-28T15:44:35.971Z,3.22
2019-05-28T15:47:06.873Z,3.20
2019-05-28T15:49:37.397Z,4.03
2019-05-28T15:52:08.392Z,3.90
2019-05-28T15:54:39.351Z,3.83
2019-05-28T15:57:10.414Z,5.70
2019-05-28T15:59:40.837Z,4.22
2019-05-28T16:02:14.611Z,4.03
2019-05-28T16:04:47.265Z,5.03
2019-05-28T16:07:18.184Z,2.92
2019-05-28T16:09:56.186Z,2.17
2019-05-28T16:12:21.641Z,2.27
2019-05-28T16:14:52.536Z,3.83
2019-05-28T16:17:23.373Z,3.12
2019-05-28T16:19:54.326Z,4.47
2019-05-28T16:22:25.232Z,3.42
2019-05-28T16:24:56.077Z,3.65
2019-05-28T16:27:27.017Z,2.25
2019-05-28T16:29:57.922Z,2.42
2019-05-28T16:32:29.343Z,4.35
2019-05-28T16:35:00.608Z,2.92
2019-05-28T16:37:31.135Z,3.87
2019-05-28T16:40:14.483Z,2.80
2019-05-28T16:42:34.667Z,3.10
2019-05-28T16:45:09.664Z,4.22
2019-05-28T16:47:40.811Z,3.37
2019-05-28T16:50:13.558Z,4.62
2019-05-28T16:52:44.349Z,3.50
2019-05-28T16:55:16.680Z,6.08
2019-05-28T16:57:47.504Z,3.15
2019-05-28T17:00:18.425Z,3.50
2019-05-28T17:02:49.285Z,2.45
2019-05-28T17:05:20.352Z,3.05
2019-05-28T17:07:51.326Z,2.80
2019-05-28T17:10:32.166Z,4.17
2019-05-28T17:12:54.353Z,4.72
2019-05-28T17:15:25.279Z,4.05
2019-05-28T17:17:56.150Z,3.58
2019-05-28T17:20:27.081Z,2.17
2019-05-28T17:22:58.024Z,3.30
2019-05-28T17:25:28.876Z,5.85
2019-05-28T17:28:00.041Z,2.35
2019-05-28T17:30:30.925Z,3.20
2019-05-28T17:33:01.783Z,3.85
2019-05-28T17:35:32.619Z,2.73
2019-05-28T17:38:03.686Z,3.83
2019-05-28T17:40:47.591Z,2.50
2019-05-28T17:43:07.178Z,5.78
2019-05-28T17:45:37.665Z,5.83
2019-05-28T17:48:08.652Z,2.52
2019-05-28T17:50:39.583Z,4.47
2019-05-28T17:53:10.447Z,3.15
2019-05-28T17:55:41.263Z,4.55
2019-05-28T17:58:12.224Z,3.27
2019-05-28T18:00:43.132Z,3.42
2019-05-28T18:03:14.035Z,2.58
2019-05-28T18:05:44.953Z,3.72
2019-05-28T18:08:15.900Z,3.87
2019-05-28T18:10:46.795Z,2.45
2019-05-28T18:13:17.658Z,3.47
2019-05-28T18:15:48.584Z,2.50
2019-05-28T18:18:20.447Z,2.40
2019-05-28T18:20:54.465Z,2.10
2019-05-28T18:23:25.378Z,4.50
2019-05-28T18:25:56.113Z,2.95
2019-05-28T18:28:26.971Z,3.02
2019-05-28T18:30:59.144Z,3.05
2019-05-28T18:33:30.201Z,3.55
2019-05-28T18:36:01.449Z,3.72
2019-05-28T18:38:32.377Z,5.25
2019-05-28T18:41:20.387Z,3.40
2019-05-28T18:43:36.189Z,6.12
2019-05-28T18:46:07.128Z,2.50
2019-05-28T18:48:38.638Z,6.78
2019-05-28T18:51:11.037Z,5.65
2019-05-28T18:53:42.043Z,4.53
2019-05-28T18:56:17.359Z,3.67
2019-05-28T18:58:45.519Z,3.30
2019-05-28T19:01:16.523Z,4.53
2019-05-28T19:03:48.893Z,3.60
2019-05-28T19:06:19.462Z,4.53
2019-05-28T19:08:50.410Z,3.40
2019-05-28T19:11:36.524Z,3.45
2019-05-28T19:13:54.185Z,7.33
2019-05-28T19:16:25.070Z,4.97
2019-05-28T19:18:55.916Z,4.00
2019-05-28T19:21:26.387Z,3.87
2019-05-28T19:23:57.205Z,3.83
2019-05-28T19:26:28.038Z,3.67
2019-05-28T19:28:59.003Z,3.08
2019-05-28T19:31:29.831Z,3.70
2019-05-28T19:34:00.682Z,2.77
2019-05-28T19:36:31.832Z,4.12
2019-05-28T19:39:03.203Z,5.05
2019-05-28T19:41:34.054Z,2.37
2019-05-28T19:44:05.046Z,2.20
2019-05-28T19:46:35.880Z,4.60
2019-05-28T19:49:06.357Z,6.65
2019-05-28T19:51:36.808Z,3.27
2019-05-28T19:54:07.869Z,2.12
2019-05-28T19:56:38.724Z,5.17
2019-05-28T19:59:09.251Z,3.62
2019-05-28T20:01:40.123Z,2.73
2019-05-28T20:04:10.925Z,3.20
2019-05-28T20:06:41.662Z,5.15
2019-05-28T20:09:12.223Z,3.10
2019-05-28T20:11:42.956Z,2.47
2019-05-28T20:14:13.812Z,3.25
2019-05-28T20:16:45.117Z,4.37
2019-05-28T20:19:16.313Z,4.30
2019-05-28T20:21:50.486Z,2.65
2019-05-28T20:24:19.785Z,3.05
2019-05-28T20:26:51.788Z,2.87
2019-05-28T20:29:22.897Z,2.90
2019-05-28T20:31:53.815Z,2.58
2019-05-28T20:34:24.827Z,2.50
2019-05-28T20:36:55.615Z,3.53
2019-05-28T20:39:26.541Z,1.90
2019-05-28T20:41:57.371Z,2.07
2019-05-28T20:44:28.445Z,5.73
2019-05-28T20:47:00.457Z,3.93
2019-05-28T20:49:31.519Z,3.77
2019-05-28T20:52:02.820Z,6.63
2019-05-28T20:54:34.079Z,5.40
2019-05-28T20:57:05.058Z,3.37
2019-05-28T20:59:35.559Z,2.27
2019-05-28T21:02:06.432Z,4.03
2019-05-28T21:04:36.923Z,3.90
2019-05-28T21:07:07.742Z,2.93
2019-05-28T21:09:38.757Z,3.30
2019-05-28T21:12:09.689Z,5.20
2019-05-28T21:14:40.599Z,3.77
2019-05-28T21:17:11.559Z,3.97
2019-05-28T21:19:42.377Z,2.07
2019-05-28T21:22:25.736Z,3.70
2019-05-28T21:24:45.486Z,4.57
2019-05-28T21:27:15.957Z,3.50
2019-05-28T21:29:46.858Z,3.57
2019-05-28T21:32:17.695Z,3.30
2019-05-28T21:34:48.658Z,3.80
2019-05-28T21:37:20.008Z,3.43
2019-05-28T21:39:51.409Z,4.07
2019-05-28T21:42:22.542Z,3.10
2019-05-28T21:44:54.033Z,4.60
2019-05-28T21:47:24.685Z,3.27
2019-05-28T21:49:57.679Z,2.40
2019-05-28T21:52:28.111Z,2.17
2019-05-28T21:54:59.199Z,3.27
2019-05-28T21:57:30.239Z,3.00
2019-05-28T22:00:02.022Z,3.37
2019-05-28T22:02:33.496Z,3.70
2019-05-28T22:05:07.971Z,3.63
2019-05-28T22:07:38.391Z,3.90
2019-05-28T22:10:09.421Z,2.03
2019-05-28T22:12:39.961Z,2.97
2019-05-28T22:15:11.148Z,4.07
2019-05-28T22:17:41.994Z,2.83
2019-05-28T22:20:13.536Z,3.03
2019-05-28T22:22:44.665Z,3.90
2019-05-28T22:25:15.699Z,3.17
2019-05-28T22:27:46.684Z,4.77
2019-05-28T22:30:18.116Z,2.17
2019-05-28T22:32:49.178Z,4.70
2019-05-28T22:35:20.190Z,3.33
2019-05-28T22:37:51.828Z,3.67
2019-05-28T22:40:22.575Z,3.13
2019-05-28T22:42:53.039Z,3.53
2019-05-28T22:45:23.590Z,4.03
2019-05-28T22:47:54.447Z,2.47
2019-05-28T22:50:25.332Z,2.67
2019-05-28T22:52:56.270Z,3.20
2019-05-28T22:55:27.262Z,3.90
2019-05-28T22:57:58.187Z,3.67
2019-05-28T23:00:28.772Z,4.03
2019-05-28T23:03:00.825Z,4.57
2019-05-28T23:05:32.006Z,3.27
2019-05-28T23:08:03.673Z,2.97
2019-05-28T23:10:36.439Z,4.77
2019-05-28T23:13:07.111Z,3.47
2019-05-28T23:15:38.154Z,3.07
2019-05-28T23:18:09.268Z,5.37
2019-05-28T23:20:40.902Z,3.73
2019-05-28T23:23:11.486Z,2.30
2019-05-28T23:25:43.328Z,8.53
2019-05-28T23:28:14.390Z,1.73
2019-05-28T23:30:45.440Z,2.33
2019-05-28T23:33:16.298Z,2.70
2019-05-28T23:35:47.250Z,3.33
2019-05-28T23:38:18.212Z,2.07
2019-05-28T23:40:49.220Z,2.03
2019-05-28T23:43:20.058Z,3.80
2019-05-28T23:45:50.998Z,1.93
2019-05-28T23:48:22.143Z,2.13
2019-05-28T23:50:53.078Z,4.17
2019-05-28T23:53:23.996Z,3.27
2019-05-28T23:55:54.961Z,1.97
2019-05-28T23:58:25.848Z,3.17
